Huvudsida
METAR-TAF:

METAR-TAF

Flygplatser :

Inverness Dalcross Airport

Inverness, Skottland

latitud: 57-32N, longitud: 004-03W, höjd: 9 m

Aktuellt väderrapport

Denna rapport gjordes för 30 minuter sedan, klockan 15:20 UTC
Vind 6 kt från väst
Temperatur 3°C
Fuktighet 93%
Tryck 998 hPa
Sikt 10 km eller mer
Få moln på en höjd av 2400 ft
Spridda moln på en höjd av 4800 ft

METAR: EGPE 161520Z 26006KT 9999 FEW024 SCT048 03/02 Q0998

Tid: 15:50 (15:50 UTC)

Väderprognos

Denna rapport gjordes för 1 timme och 46 minuter sedan, klockan 14:04 UTC
Prognos gäller från 16 kl. 15 UTC till 16 kl. 24 UTC
Vind 13 kt från sydväst
Sikt 10 km eller mer
Få moln på en höjd av 2500 ft
Blir
från 16 kl. 15 UTC till 16 kl. 17 UTC
Vind 6 kt från syd/sydost

TAF: EGPE 161404Z 1615/1624 22013KT 9999 FEW025 BECMG 1615/1617 16006KT

Aktuella väderrapporter och prognoser från 4000 flygplatser (METAR- och TAF-rapporter).

De tillgängliga stationerna syns som gula och röda prickar på kartan.

För musen över prickarna för att se namnen på stationerna.

Klicka sedan för att få väderrapporter och prognoser.

För att ändra kartan: Klicka på de gröna knapparna med ett svart kors på för att zooma in; den gröna knappen med ett streck på för att zooma ut; eller på de gröna pilarna för angränsande kartor.


METAR-TAF: